Home   Weather   Switzerland   Ostermundigen   Past weeks
Flag for Switzerland

Past Weather in Ostermundigen, Bern, Switzerland — Yesterday and Last 2 Weeks

Currently: 73 °F. Passing clouds. (Weather station: Bern / Belp, Switzerland). See more current weather

Past Weather in Ostermundigen — Graph

°F

Ostermundigen Temperature Yesterday

Maximum temperature yesterday: 88 °F (at 4:50 pm)
Minimum temperature yesterday: 61 °F (at 3:50 am)
Average temperature yesterday: 74 °F

High & Low Weather Summary for the Past Weeks

 TemperatureHumidityPressure
High88 °F (Jun 16, 7:20 pm)100% (Jun 5, 2:20 am)30.27 "Hg (Jun 5, 2:20 am)
Low48 °F (Jun 14, 5:50 am)25% (Jun 15, 3:50 pm)29.89 "Hg (Jun 19, 6:20 pm)
Average67 °F75%30.11 "Hg
* Reported Jun 5 2:20 am — Jun 20 2:20 am, Ostermundigen. Weather by CustomWeather, © 2021

Note: Actual official high and low records may vary slightly from our data, if they occured in-between our weather recording intervals... More about our weather records

Ostermundigen Weather History for the Previous 24 Hours

Scroll right to see more
 ConditionsComfort  
Time TempWeatherWind HumidityBarometerVisibility
2:20 am
Sun, Jun 20
70 °FMostly cloudy.13 mph88%29.95 "HgN/A
1:50 am70 °FPassing clouds.2 mph88%29.92 "HgN/A
1:20 am70 °FPassing clouds.1 mph88%29.92 "HgN/A
12:50 am70 °FPassing clouds.3 mph88%29.92 "HgN/A
12:20 am72 °FLight rain. Partly cloudy.1 mph88%29.92 "HgN/A
11:50 pm
Sat, Jun 19
72 °FPartly cloudy.3 mph83%29.92 "HgN/A
11:20 pm72 °FPartly cloudy.3 mph83%29.92 "HgN/A
10:50 pm72 °FPassing clouds.1 mph83%29.92 "HgN/A
10:20 pm73 °FPassing clouds.2 mph78%29.92 "HgN/A
9:50 pm75 °FPartly cloudy.2 mph74%29.89 "HgN/A
9:20 pm73 °FSunny.1 mph83%29.89 "Hg10 mi
8:50 pm77 °FSunny.2 mph79%29.89 "Hg10 mi
8:20 pm81 °FPassing clouds.2 mph66%29.89 "HgN/A
7:50 pm81 °FPassing clouds.2 mph62%29.89 "HgN/A
7:20 pm84 °FPassing clouds.3 mph55%29.89 "HgN/A
6:50 pm84 °FPassing clouds.3 mph51%29.89 "HgN/A
6:20 pm88 °FSunny.1 mph40%29.89 "Hg10 mi
5:50 pm86 °FPassing clouds.5 mph43%29.92 "HgN/A
5:20 pm86 °FSunny.3 mph43%29.92 "Hg10 mi
4:50 pm88 °FSunny.7 mph43%29.92 "Hg10 mi
4:20 pm86 °FSunny.3 mph52%29.95 "Hg10 mi
3:50 pm86 °FPassing clouds.5 mph52%29.95 "HgN/A
3:20 pm86 °FSunny.5 mph55%29.95 "Hg10 mi
2:50 pm86 °FSunny.3 mph52%29.98 "Hg10 mi
2:20 pm84 °FSunny.3 mph51%29.98 "Hg10 mi
1:50 pm82 °FSunny.5 mph58%29.98 "Hg10 mi
1:20 pm82 °FPassing clouds.7 mph55%29.98 "HgN/A
12:50 pm81 °FSunny.2 mph58%29.98 "Hg10 mi
12:20 pm79 °FSunny.2 mph61%29.98 "Hg10 mi
11:50 am79 °FSunny.2 mph58%30.01 "Hg10 mi
11:20 am77 °FSunny.2 mph61%30.01 "Hg10 mi
10:50 am73 °FSunny.2 mph74%30.01 "Hg10 mi
10:20 am73 °FSunny.5 mph69%30.04 "Hg10 mi
9:50 am73 °FSunny.6 mph74%30.04 "Hg10 mi
9:20 am72 °FPassing clouds.8 mph73%30.07 "HgN/A
8:50 am68 °FPassing clouds.9 mph83%30.07 "HgN/A
8:20 am68 °FPassing clouds.7 mph83%30.07 "HgN/A
7:50 am64 °FPassing clouds.6 mph88%30.09 "HgN/A
7:20 am64 °FSunny.7 mph88%30.09 "Hg10 mi
6:50 am64 °FMild.7 mph88%30.09 "HgN/A
6:20 am63 °FPassing clouds.7 mph94%30.09 "HgN/A
5:50 am61 °FSunny.7 mph94%30.09 "Hg10 mi
5:20 am61 °FCool.8 mph94%30.07 "HgN/A
4:50 am61 °FClear.7 mph94%30.07 "Hg10 mi
4:20 am61 °FClear.5 mph94%30.07 "Hg10 mi
Weather by CustomWeather, © 2021

See weather overview